NJE64E LESL-LEIB
Flight info
| Callsign | NJE64E |
|---|---|
| Flight time | N/A |
| Altitude | 23000 |
| Route | DCT NEVIC NEVIC4V |
| Aircraft | C25B/M-SDE2E3FGHRWXY/LB1 |
Departure
| Time | 2026-04-20 17:59 |
|---|---|
| Airport | Sant Lluis Airfield (LESL) |
Arrival
| Time | N/A |
|---|---|
| Airport | Ibiza Airport (LEIB) |
| Time | Latitude | Longitude | Altitude | Speed | Heading |
|---|---|---|---|---|---|
| 2026-04-20 17:56 | 39.86557 | 4.25481 | 179 ft | 2 kts | 182° |
| 2026-04-20 17:56 | 39.86557 | 4.25467 | 179 ft | 5 kts | 338° |
| 2026-04-20 17:56 | 39.86595 | 4.25471 | 178 ft | 3 kts | 357° |
| 2026-04-20 17:56 | 39.86621 | 4.25441 | 178 ft | 0 kts | 295° |
| 2026-04-20 17:57 | 39.86632 | 4.25414 | 178 ft | 10 kts | 307° |
| 2026-04-20 17:58 | 39.86739 | 4.25439 | 176 ft | 23 kts | 19° |
| 2026-04-20 17:58 | 39.86875 | 4.25502 | 178 ft | 15 kts | 60° |
| 2026-04-20 17:58 | 39.86896 | 4.25508 | 178 ft | 7 kts | 211° |
| 2026-04-20 17:58 | 39.86813 | 4.25472 | 177 ft | 41 kts | 199° |
| 2026-04-20 17:59 | 39.86140 | 4.25163 | 333 ft | 151 kts | 199° |
| 2026-04-20 17:59 | 39.85063 | 4.24330 | 1139 ft | 213 kts | 224° |
| 2026-04-20 17:59 | 39.84191 | 4.22454 | 2059 ft | 270 kts | 245° |
| 2026-04-20 17:59 | 39.83236 | 4.20344 | 2930 ft | 277 kts | 228° |
| 2026-04-20 18:00 | 39.81867 | 4.18501 | 3815 ft | 286 kts | 227° |
| 2026-04-20 18:00 | 39.80633 | 4.16570 | 5423 ft | 263 kts | 231° |
| 2026-04-20 18:00 | 39.79526 | 4.14835 | 7074 ft | 238 kts | 232° |
| 2026-04-20 18:00 | 39.78461 | 4.13157 | 8103 ft | 246 kts | 232° |
| 2026-04-20 18:01 | 39.77356 | 4.11434 | 9096 ft | 249 kts | 231° |
| 2026-04-20 18:01 | 39.76235 | 4.09687 | 10082 ft | 253 kts | 232° |
| 2026-04-20 18:01 | 39.75100 | 4.07918 | 11065 ft | 257 kts | 232° |
| 2026-04-20 18:01 | 39.73985 | 4.06166 | 12751 ft | 254 kts | 233° |
| 2026-04-20 18:02 | 39.72850 | 4.04410 | 14535 ft | 254 kts | 233° |
| 2026-04-20 18:02 | 39.71695 | 4.02605 | 16109 ft | 260 kts | 233° |
| 2026-04-20 18:02 | 39.70538 | 4.00812 | 17606 ft | 265 kts | 234° |
| 2026-04-20 18:02 | 39.69345 | 3.98947 | 18982 ft | 271 kts | 234° |
| 2026-04-20 18:03 | 39.68111 | 3.97038 | 20101 ft | 279 kts | 234° |
| 2026-04-20 18:03 | 39.66853 | 3.95078 | 21330 ft | 286 kts | 234° |
| 2026-04-20 18:03 | 39.65560 | 3.93079 | 22561 ft | 293 kts | 234° |
| 2026-04-20 18:03 | 39.64191 | 3.90940 | 22975 ft | 326 kts | 233° |
| 2026-04-20 18:04 | 39.62678 | 3.88608 | 22986 ft | 347 kts | 233° |
| 2026-04-20 18:04 | 39.61080 | 3.86146 | 22985 ft | 365 kts | 233° |
| 2026-04-20 18:04 | 39.59421 | 3.83565 | 22987 ft | 380 kts | 233° |
| 2026-04-20 18:04 | 39.57690 | 3.80898 | 22986 ft | 391 kts | 232° |
| 2026-04-20 18:05 | 39.54124 | 3.75397 | 22984 ft | 404 kts | 232° |
| 2026-04-20 18:05 | 39.52331 | 3.72627 | 22985 ft | 408 kts | 232° |
| 2026-04-20 18:05 | 39.50495 | 3.69802 | 22986 ft | 411 kts | 232° |
| 2026-04-20 18:06 | 39.48649 | 3.66960 | 22982 ft | 414 kts | 232° |
| 2026-04-20 18:06 | 39.46793 | 3.64107 | 22981 ft | 415 kts | 232° |
| 2026-04-20 18:06 | 39.44931 | 3.61247 | 22983 ft | 411 kts | 232° |
| 2026-04-20 18:06 | 39.43129 | 3.58478 | 22981 ft | 394 kts | 232° |
| 2026-04-20 18:07 | 39.41386 | 3.55815 | 22977 ft | 382 kts | 232° |
| 2026-04-20 18:07 | 39.39695 | 3.53214 | 22970 ft | 376 kts | 232° |
| 2026-04-20 18:07 | 39.37997 | 3.50591 | 22966 ft | 385 kts | 233° |
| 2026-04-20 18:07 | 39.36252 | 3.47917 | 22966 ft | 393 kts | 232° |
| 2026-04-20 18:08 | 39.34490 | 3.45191 | 22965 ft | 396 kts | 236° |
| 2026-04-20 18:08 | 39.33374 | 3.41980 | 22965 ft | 394 kts | 256° |
| 2026-04-20 18:08 | 39.32832 | 3.38503 | 22971 ft | 396 kts | 262° |
| 2026-04-20 18:08 | 39.32423 | 3.34977 | 22976 ft | 398 kts | 263° |
| 2026-04-20 18:09 | 39.31914 | 3.31453 | 22974 ft | 400 kts | 258° |
| 2026-04-20 18:09 | 39.31150 | 3.27985 | 22975 ft | 402 kts | 255° |
| 2026-04-20 18:09 | 39.30359 | 3.24513 | 22964 ft | 403 kts | 256° |
| 2026-04-20 18:09 | 39.29696 | 3.21002 | 22967 ft | 403 kts | 258° |
| 2026-04-20 18:10 | 39.29044 | 3.17483 | 22965 ft | 404 kts | 257° |
| 2026-04-20 18:10 | 39.28336 | 3.13974 | 22966 ft | 404 kts | 257° |
| 2026-04-20 18:10 | 39.27620 | 3.10469 | 22968 ft | 404 kts | 257° |
| 2026-04-20 18:10 | 39.26919 | 3.06946 | 22969 ft | 405 kts | 257° |
| 2026-04-20 18:11 | 39.26223 | 3.03426 | 22969 ft | 405 kts | 257° |
| 2026-04-20 18:11 | 39.25518 | 2.99903 | 22968 ft | 405 kts | 257° |
| 2026-04-20 18:11 | 39.24812 | 2.96375 | 22969 ft | 405 kts | 257° |
| 2026-04-20 18:11 | 39.24099 | 2.92854 | 22971 ft | 406 kts | 257° |
| 2026-04-20 18:12 | 39.23405 | 2.89378 | 22961 ft | 406 kts | 257° |
| 2026-04-20 18:12 | 39.22694 | 2.85855 | 22892 ft | 407 kts | 257° |
| 2026-04-20 18:12 | 39.21975 | 2.82278 | 22390 ft | 417 kts | 257° |
| 2026-04-20 18:12 | 39.21233 | 2.78622 | 21836 ft | 424 kts | 257° |
| 2026-04-20 18:13 | 39.20498 | 2.75037 | 21289 ft | 401 kts | 257° |
| 2026-04-20 18:13 | 39.19815 | 2.71648 | 20770 ft | 382 kts | 257° |
| 2026-04-20 18:13 | 39.19154 | 2.68391 | 20274 ft | 368 kts | 257° |
| 2026-04-20 18:13 | 39.18516 | 2.65247 | 19796 ft | 357 kts | 257° |
| 2026-04-20 18:14 | 39.17892 | 2.62186 | 19333 ft | 348 kts | 257° |
| 2026-04-20 18:14 | 39.17281 | 2.59199 | 18864 ft | 341 kts | 257° |
| 2026-04-20 18:14 | 39.16685 | 2.56269 | 18427 ft | 336 kts | 257° |
| 2026-04-20 18:14 | 39.16068 | 2.53388 | 17939 ft | 331 kts | 253° |
| 2026-04-20 18:15 | 39.15103 | 2.50703 | 17424 ft | 329 kts | 243° |
| 2026-04-20 18:15 | 39.13979 | 2.48142 | 16937 ft | 326 kts | 243° |
| 2026-04-20 18:15 | 39.12965 | 2.45640 | 16929 ft | 310 kts | 246° |
| 2026-04-20 18:15 | 39.12062 | 2.43180 | 16922 ft | 298 kts | 246° |
| 2026-04-20 18:16 | 39.11161 | 2.40818 | 16934 ft | 289 kts | 246° |
| 2026-04-20 18:16 | 39.10280 | 2.38534 | 16925 ft | 281 kts | 246° |
| 2026-04-20 18:16 | 39.09418 | 2.36303 | 16923 ft | 275 kts | 246° |
| 2026-04-20 18:16 | 39.08862 | 2.34841 | 16919 ft | 272 kts | 246° |
| 2026-04-20 18:17 | 39.08024 | 2.32674 | 16925 ft | 269 kts | 246° |
| 2026-04-20 18:17 | 39.07201 | 2.30525 | 16922 ft | 266 kts | 246° |
| 2026-04-20 18:17 | 39.06119 | 2.27721 | 16918 ft | 263 kts | 246° |
| 2026-04-20 18:17 | 39.05309 | 2.25621 | 16917 ft | 261 kts | 246° |
| 2026-04-20 18:18 | 39.04614 | 2.23490 | 16902 ft | 257 kts | 257° |
| 2026-04-20 18:18 | 39.04394 | 2.21916 | 16324 ft | 274 kts | 264° |
| 2026-04-20 18:18 | 39.04226 | 2.19371 | 15203 ft | 293 kts | 265° |
| 2026-04-20 18:18 | 39.04007 | 2.16745 | 13832 ft | 305 kts | 262° |
| 2026-04-20 18:19 | 39.03620 | 2.13972 | 12171 ft | 320 kts | 259° |
| 2026-04-20 18:19 | 39.03214 | 2.11144 | 11239 ft | 313 kts | 261° |
| 2026-04-20 18:19 | 39.02883 | 2.08507 | 10916 ft | 287 kts | 261° |
| 2026-04-20 18:19 | 39.02568 | 2.06051 | 10556 ft | 269 kts | 261° |
| 2026-04-20 18:20 | 39.02273 | 2.03737 | 10212 ft | 255 kts | 261° |
| 2026-04-20 18:20 | 39.01983 | 2.01543 | 9886 ft | 244 kts | 261° |
| 2026-04-20 18:20 | 39.01710 | 1.99435 | 9545 ft | 234 kts | 261° |
| 2026-04-20 18:20 | 39.01445 | 1.97407 | 9239 ft | 226 kts | 261° |
| 2026-04-20 18:21 | 39.01190 | 1.95451 | 8941 ft | 218 kts | 261° |
| 2026-04-20 18:21 | 39.00941 | 1.93525 | 8660 ft | 224 kts | 261° |
| 2026-04-20 18:21 | 39.00673 | 1.91504 | 8364 ft | 234 kts | 260° |
| 2026-04-20 18:21 | 39.00409 | 1.89455 | 8063 ft | 238 kts | 261° |
| 2026-04-20 18:22 | 39.00128 | 1.87345 | 7748 ft | 241 kts | 260° |
| 2026-04-20 18:22 | 38.99850 | 1.85205 | 7430 ft | 244 kts | 260° |
| 2026-04-20 18:22 | 38.99563 | 1.83046 | 7110 ft | 246 kts | 260° |
| 2026-04-20 18:22 | 38.99279 | 1.80864 | 6781 ft | 249 kts | 260° |
| 2026-04-20 18:23 | 38.98986 | 1.78660 | 6455 ft | 250 kts | 259° |
| 2026-04-20 18:23 | 38.98694 | 1.76442 | 6110 ft | 252 kts | 260° |
| 2026-04-20 18:23 | 38.98400 | 1.74220 | 5773 ft | 253 kts | 260° |